Portada
METAR-TAF:

METAR-TAF

Aeroports :

Kosrae, Micronèsia

latitud: 05-21N, longitud: 162-57E, altitud: 3 m

Observació

L'informe es va fer fa 4 hores i 30 minuts, a les 22:59 UTC
Vent 10 kt del Est
Temperatura 29°C
Humitat 74%
Pressió 1009 hPa
Visibilitat: 16.1 km
Núvols disperses a una alçada de 1900 ft
Cel ennuvolat a una alçada de 13000 ft
Cel ennuvolat a una alçada de 30000 ft

METAR: PTSA 052259Z 09010KT 10SM SCT019 BKN130 BKN300 29/24 A2979 RMK LAST

Hora: 14:29 (03:29 UTC)

Pronòstic

L'informe es va fer fa 4 hores i 9 minuts, a les 23:20 UTC
Pronòstic vàlid del 06 a les 00 UTC al 06 a les 24 UTC
Vent 12 kt del Est/Nord-Est
Visibilitat: 10 km
Núvols disperses a una alçada de 2000 ft
Cel ennuvolat a una alçada de 12000 ft
xàfecs en les proximitats
Temporalment
l' 06 a les 00 UTC al 06 a les 02 UTC
Visibilitat: 8.0 km
Cel ennuvolat a una alçada de 1700 ft
xàfecs de pluja

TAF: PTSA 052320Z 0600/0624 06012KT P6SM VCSH SCT020 BKN120 TEMPO 0600/0602 5SM SHRA BKN017

Observacions i pronòstics meteorològics de més de 4000 aeroports (METAR i TAF).

Les estacions disponibles són els punts grocs i vermells al mapa.

Posi el ratolí al punt desitjat per veure el nom de l'estació.

Feu clic per veure les observacions i els pronòstics meteorològics.

Per canviar el mapa: feu clic els botons verds amb una creu de color negre per apropar; al botó verd amb un guió per allunyar la imatge; o en les fletxes verdes per a mapes adjacents.


METAR-TAF: